Yong'An, China
Current Conditions -  °F | °C
As of 3:00 PM on Friday 31 Oct 2014 (Local Time) from ZSAM Reporting Station
Clear Clear  
Wind Chill: 82°   Ceiling: Unl
Heat Index: 85°   Visibility: 6mi
Dew Point: 66°   Wind: 11mph
Humidity: 58%   Direction: 130°SE
Pressure: 29.88"   Gusts: NA
Location:  25.97°N, 117.35°E
Report Text: ZSAM 310700Z 13005MPS 090V170 CAVOK 28/19 Q1012 NOSIG
Loading
Personal Weather Stations






























Interactive Weather Map
Tropical Storm Tracking
New forecast layout! Learn more

10-Day Weather Forecast

Advertisements
Track Severe Weather on mobile